sensor_id;sensor_type;location;lat;lon;timestamp;P1;durP1;ratioP1;P2;durP2;ratioP2
32533;SDS011;18973;48.580;8.912;2024-02-28T00:02:10;31.42;;;17.52;;
32533;SDS011;18973;48.580;8.912;2024-02-28T00:04:35;30.65;;;16.13;;
32533;SDS011;18973;48.580;8.912;2024-02-28T00:07:01;31.55;;;16.30;;
32533;SDS011;18973;48.580;8.912;2024-02-28T00:09:27;28.50;;;17.23;;
32533;SDS011;18973;48.580;8.912;2024-02-28T00:11:52;30.30;;;17.15;;
32533;SDS011;18973;48.580;8.912;2024-02-28T00:14:18;31.70;;;17.45;;
32533;SDS011;18973;48.580;8.912;2024-02-28T00:16:44;33.70;;;17.95;;
32533;SDS011;18973;48.580;8.912;2024-02-28T00:19:11;33.33;;;17.58;;
32533;SDS011;18973;48.580;8.912;2024-02-28T00:21:37;32.88;;;18.52;;
32533;SDS011;18973;48.580;8.912;2024-02-28T00:24:06;33.90;;;17.83;;
32533;SDS011;18973;48.580;8.912;2024-02-28T00:26:33;34.63;;;18.60;;
32533;SDS011;18973;48.580;8.912;2024-02-28T00:28:58;29.55;;;17.55;;
32533;SDS011;18973;48.580;8.912;2024-02-28T00:31:25;32.42;;;18.60;;
32533;SDS011;18973;48.580;8.912;2024-02-28T00:33:50;30.13;;;17.25;;
32533;SDS011;18973;48.580;8.912;2024-02-28T00:36:16;30.67;;;17.02;;
32533;SDS011;18973;48.580;8.912;2024-02-28T00:38:42;32.67;;;17.77;;
32533;SDS011;18973;48.580;8.912;2024-02-28T00:41:07;34.47;;;17.85;;
32533;SDS011;18973;48.580;8.912;2024-02-28T00:43:33;30.75;;;18.15;;
32533;SDS011;18973;48.580;8.912;2024-02-28T00:45:59;36.53;;;18.35;;
32533;SDS011;18973;48.580;8.912;2024-02-28T00:48:25;30.58;;;17.98;;
32533;SDS011;18973;48.580;8.912;2024-02-28T00:50:51;30.67;;;17.33;;
32533;SDS011;18973;48.580;8.912;2024-02-28T00:53:18;32.42;;;17.63;;
32533;SDS011;18973;48.580;8.912;2024-02-28T00:55:43;29.55;;;17.60;;
32533;SDS011;18973;48.580;8.912;2024-02-28T00:58:10;34.33;;;18.38;;
32533;SDS011;18973;48.580;8.912;2024-02-28T01:00:35;32.85;;;17.17;;
32533;SDS011;18973;48.580;8.912;2024-02-28T01:03:01;33.75;;;16.02;;
32533;SDS011;18973;48.580;8.912;2024-02-28T01:05:33;31.60;;;18.10;;
32533;SDS011;18973;48.580;8.912;2024-02-28T01:08:00;30.85;;;15.95;;
32533;SDS011;18973;48.580;8.912;2024-02-28T01:10:25;27.08;;;15.52;;
32533;SDS011;18973;48.580;8.912;2024-02-28T01:12:51;34.70;;;17.70;;
32533;SDS011;18973;48.580;8.912;2024-02-28T01:15:17;34.53;;;17.73;;
32533;SDS011;18973;48.580;8.912;2024-02-28T01:17:42;31.65;;;18.40;;
32533;SDS011;18973;48.580;8.912;2024-02-28T01:20:08;34.95;;;18.05;;
32533;SDS011;18973;48.580;8.912;2024-02-28T01:22:34;30.95;;;16.83;;
32533;SDS011;18973;48.580;8.912;2024-02-28T01:25:00;28.45;;;17.20;;
32533;SDS011;18973;48.580;8.912;2024-02-28T01:27:29;30.35;;;16.90;;
32533;SDS011;18973;48.580;8.912;2024-02-28T01:29:55;37.05;;;18.35;;
32533;SDS011;18973;48.580;8.912;2024-02-28T01:32:20;34.38;;;17.85;;
32533;SDS011;18973;48.580;8.912;2024-02-28T01:34:46;33.78;;;19.58;;
32533;SDS011;18973;48.580;8.912;2024-02-28T01:37:12;31.80;;;17.50;;
32533;SDS011;18973;48.580;8.912;2024-02-28T01:39:38;26.92;;;16.02;;
32533;SDS011;18973;48.580;8.912;2024-02-28T01:42:03;31.50;;;18.55;;
32533;SDS011;18973;48.580;8.912;2024-02-28T01:44:29;35.78;;;17.30;;
32533;SDS011;18973;48.580;8.912;2024-02-28T01:46:55;32.97;;;18.23;;
32533;SDS011;18973;48.580;8.912;2024-02-28T01:49:23;33.72;;;17.77;;
32533;SDS011;18973;48.580;8.912;2024-02-28T01:51:50;39.17;;;19.08;;
32533;SDS011;18973;48.580;8.912;2024-02-28T01:54:18;30.42;;;17.48;;
32533;SDS011;18973;48.580;8.912;2024-02-28T01:56:46;37.00;;;18.17;;
32533;SDS011;18973;48.580;8.912;2024-02-28T01:59:12;33.80;;;17.17;;
32533;SDS011;18973;48.580;8.912;2024-02-28T02:01:38;33.47;;;17.27;;
32533;SDS011;18973;48.580;8.912;2024-02-28T02:04:04;27.67;;;17.27;;
32533;SDS011;18973;48.580;8.912;2024-02-28T02:06:31;33.78;;;18.02;;
32533;SDS011;18973;48.580;8.912;2024-02-28T02:08:57;36.15;;;17.48;;
32533;SDS011;18973;48.580;8.912;2024-02-28T02:11:23;34.22;;;17.65;;
32533;SDS011;18973;48.580;8.912;2024-02-28T02:13:53;33.10;;;17.25;;
32533;SDS011;18973;48.580;8.912;2024-02-28T02:16:19;37.08;;;18.17;;
32533;SDS011;18973;48.580;8.912;2024-02-28T02:18:47;35.40;;;19.17;;
32533;SDS011;18973;48.580;8.912;2024-02-28T02:21:15;31.45;;;16.45;;
32533;SDS011;18973;48.580;8.912;2024-02-28T02:23:43;33.47;;;16.88;;
32533;SDS011;18973;48.580;8.912;2024-02-28T02:26:09;34.28;;;18.67;;
32533;SDS011;18973;48.580;8.912;2024-02-28T02:28:34;33.40;;;18.80;;
32533;SDS011;18973;48.580;8.912;2024-02-28T02:31:00;33.78;;;18.35;;
32533;SDS011;18973;48.580;8.912;2024-02-28T02:33:26;36.05;;;17.80;;
32533;SDS011;18973;48.580;8.912;2024-02-28T02:35:52;33.60;;;18.30;;
32533;SDS011;18973;48.580;8.912;2024-02-28T02:38:18;31.58;;;16.98;;
32533;SDS011;18973;48.580;8.912;2024-02-28T02:40:48;31.15;;;17.02;;
32533;SDS011;18973;48.580;8.912;2024-02-28T02:43:14;33.05;;;17.48;;
32533;SDS011;18973;48.580;8.912;2024-02-28T02:45:40;33.78;;;17.70;;
32533;SDS011;18973;48.580;8.912;2024-02-28T02:48:06;32.63;;;16.65;;
32533;SDS011;18973;48.580;8.912;2024-02-28T02:50:32;33.95;;;17.77;;
32533;SDS011;18973;48.580;8.912;2024-02-28T02:52:57;35.63;;;18.80;;
32533;SDS011;18973;48.580;8.912;2024-02-28T02:55:23;31.02;;;18.17;;
32533;SDS011;18973;48.580;8.912;2024-02-28T02:57:49;37.20;;;17.50;;
32533;SDS011;18973;48.580;8.912;2024-02-28T03:00:14;32.05;;;18.10;;
32533;SDS011;18973;48.580;8.912;2024-02-28T03:02:40;31.73;;;16.95;;
32533;SDS011;18973;48.580;8.912;2024-02-28T03:05:06;34.03;;;17.33;;
32533;SDS011;18973;48.580;8.912;2024-02-28T03:07:32;30.75;;;16.67;;
32533;SDS011;18973;48.580;8.912;2024-02-28T03:09:58;33.13;;;16.70;;
32533;SDS011;18973;48.580;8.912;2024-02-28T03:12:24;33.42;;;17.35;;
32533;SDS011;18973;48.580;8.912;2024-02-28T03:14:50;33.13;;;18.00;;
32533;SDS011;18973;48.580;8.912;2024-02-28T03:17:15;32.85;;;17.77;;
32533;SDS011;18973;48.580;8.912;2024-02-28T03:19:41;33.78;;;17.40;;
32533;SDS011;18973;48.580;8.912;2024-02-28T03:22:07;32.22;;;17.05;;
32533;SDS011;18973;48.580;8.912;2024-02-28T03:24:33;29.67;;;17.27;;
32533;SDS011;18973;48.580;8.912;2024-02-28T03:27:02;35.28;;;18.25;;
32533;SDS011;18973;48.580;8.912;2024-02-28T03:29:28;30.92;;;17.25;;
32533;SDS011;18973;48.580;8.912;2024-02-28T03:31:54;40.58;;;18.48;;
32533;SDS011;18973;48.580;8.912;2024-02-28T03:34:20;32.05;;;17.33;;
32533;SDS011;18973;48.580;8.912;2024-02-28T03:36:45;36.13;;;17.63;;
32533;SDS011;18973;48.580;8.912;2024-02-28T03:39:11;32.40;;;18.02;;
32533;SDS011;18973;48.580;8.912;2024-02-28T03:41:37;37.92;;;18.75;;
32533;SDS011;18973;48.580;8.912;2024-02-28T03:44:03;36.75;;;19.55;;
32533;SDS011;18973;48.580;8.912;2024-02-28T03:46:30;31.75;;;17.27;;
32533;SDS011;18973;48.580;8.912;2024-02-28T03:48:55;33.63;;;17.92;;
32533;SDS011;18973;48.580;8.912;2024-02-28T03:51:21;31.67;;;18.00;;
32533;SDS011;18973;48.580;8.912;2024-02-28T03:53:47;36.40;;;18.88;;
32533;SDS011;18973;48.580;8.912;2024-02-28T03:56:13;35.05;;;18.50;;
32533;SDS011;18973;48.580;8.912;2024-02-28T03:58:46;33.03;;;18.63;;
32533;SDS011;18973;48.580;8.912;2024-02-28T04:01:12;31.65;;;17.95;;
32533;SDS011;18973;48.580;8.912;2024-02-28T04:03:38;33.40;;;17.85;;
32533;SDS011;18973;48.580;8.912;2024-02-28T04:06:04;34.47;;;17.52;;
32533;SDS011;18973;48.580;8.912;2024-02-28T04:08:29;28.75;;;16.23;;
32533;SDS011;18973;48.580;8.912;2024-02-28T04:10:55;34.05;;;18.35;;
32533;SDS011;18973;48.580;8.912;2024-02-28T04:13:21;36.10;;;18.65;;
32533;SDS011;18973;48.580;8.912;2024-02-28T04:15:46;32.83;;;17.48;;
32533;SDS011;18973;48.580;8.912;2024-02-28T04:18:12;34.25;;;16.88;;
32533;SDS011;18973;48.580;8.912;2024-02-28T04:20:38;31.92;;;18.48;;
32533;SDS011;18973;48.580;8.912;2024-02-28T04:23:04;37.78;;;17.13;;
32533;SDS011;18973;48.580;8.912;2024-02-28T04:25:29;35.80;;;18.17;;
32533;SDS011;18973;48.580;8.912;2024-02-28T04:27:55;31.83;;;16.83;;
32533;SDS011;18973;48.580;8.912;2024-02-28T04:30:22;28.77;;;16.88;;
32533;SDS011;18973;48.580;8.912;2024-02-28T04:32:48;30.25;;;18.27;;
32533;SDS011;18973;48.580;8.912;2024-02-28T04:35:14;33.80;;;17.65;;
32533;SDS011;18973;48.580;8.912;2024-02-28T04:37:43;34.42;;;18.58;;
32533;SDS011;18973;48.580;8.912;2024-02-28T04:40:12;37.58;;;19.20;;
32533;SDS011;18973;48.580;8.912;2024-02-28T04:42:38;33.63;;;18.77;;
32533;SDS011;18973;48.580;8.912;2024-02-28T04:45:04;37.53;;;18.42;;
32533;SDS011;18973;48.580;8.912;2024-02-28T04:47:30;30.00;;;16.75;;
32533;SDS011;18973;48.580;8.912;2024-02-28T04:49:56;37.60;;;18.60;;
32533;SDS011;18973;48.580;8.912;2024-02-28T04:52:22;33.15;;;17.63;;
32533;SDS011;18973;48.580;8.912;2024-02-28T04:54:49;33.13;;;17.90;;
32533;SDS011;18973;48.580;8.912;2024-02-28T04:57:16;33.28;;;16.98;;
32533;SDS011;18973;48.580;8.912;2024-02-28T04:59:42;30.35;;;17.45;;
32533;SDS011;18973;48.580;8.912;2024-02-28T05:02:09;34.60;;;18.25;;
32533;SDS011;18973;48.580;8.912;2024-02-28T05:04:34;33.50;;;18.15;;
32533;SDS011;18973;48.580;8.912;2024-02-28T05:07:00;31.67;;;17.55;;
32533;SDS011;18973;48.580;8.912;2024-02-28T05:09:26;32.85;;;17.48;;
32533;SDS011;18973;48.580;8.912;2024-02-28T05:11:52;34.75;;;17.23;;
32533;SDS011;18973;48.580;8.912;2024-02-28T05:14:17;33.72;;;18.83;;
32533;SDS011;18973;48.580;8.912;2024-02-28T05:16:43;32.83;;;17.55;;
32533;SDS011;18973;48.580;8.912;2024-02-28T05:19:09;31.95;;;17.95;;
32533;SDS011;18973;48.580;8.912;2024-02-28T05:21:41;35.25;;;18.42;;
32533;SDS011;18973;48.580;8.912;2024-02-28T05:24:07;36.42;;;20.10;;
32533;SDS011;18973;48.580;8.912;2024-02-28T05:26:36;34.55;;;17.40;;
32533;SDS011;18973;48.580;8.912;2024-02-28T05:29:03;32.65;;;17.90;;
32533;SDS011;18973;48.580;8.912;2024-02-28T05:31:29;33.67;;;17.95;;
32533;SDS011;18973;48.580;8.912;2024-02-28T05:33:58;35.03;;;19.13;;
32533;SDS011;18973;48.580;8.912;2024-02-28T05:36:25;33.58;;;17.65;;
32533;SDS011;18973;48.580;8.912;2024-02-28T05:38:53;36.08;;;18.58;;
32533;SDS011;18973;48.580;8.912;2024-02-28T05:41:19;31.20;;;17.08;;
32533;SDS011;18973;48.580;8.912;2024-02-28T05:43:46;36.00;;;19.05;;
32533;SDS011;18973;48.580;8.912;2024-02-28T05:46:12;30.60;;;16.60;;
32533;SDS011;18973;48.580;8.912;2024-02-28T05:48:40;31.65;;;17.52;;
32533;SDS011;18973;48.580;8.912;2024-02-28T05:51:06;30.83;;;17.75;;
32533;SDS011;18973;48.580;8.912;2024-02-28T05:53:32;29.80;;;16.50;;
32533;SDS011;18973;48.580;8.912;2024-02-28T05:56:01;29.98;;;16.65;;
32533;SDS011;18973;48.580;8.912;2024-02-28T05:58:27;32.17;;;17.35;;
32533;SDS011;18973;48.580;8.912;2024-02-28T06:00:53;31.33;;;17.55;;
32533;SDS011;18973;48.580;8.912;2024-02-28T06:03:18;35.42;;;16.10;;
32533;SDS011;18973;48.580;8.912;2024-02-28T06:05:44;33.05;;;16.75;;
32533;SDS011;18973;48.580;8.912;2024-02-28T06:08:10;26.73;;;16.30;;
32533;SDS011;18973;48.580;8.912;2024-02-28T06:10:36;31.02;;;16.77;;
32533;SDS011;18973;48.580;8.912;2024-02-28T06:13:02;28.65;;;14.98;;
32533;SDS011;18973;48.580;8.912;2024-02-28T06:15:28;24.60;;;14.43;;
32533;SDS011;18973;48.580;8.912;2024-02-28T06:17:56;27.20;;;16.13;;
32533;SDS011;18973;48.580;8.912;2024-02-28T06:20:22;26.52;;;16.10;;
32533;SDS011;18973;48.580;8.912;2024-02-28T06:22:48;27.17;;;15.38;;
32533;SDS011;18973;48.580;8.912;2024-02-28T06:25:14;28.42;;;15.55;;
32533;SDS011;18973;48.580;8.912;2024-02-28T06:27:44;27.73;;;15.23;;
32533;SDS011;18973;48.580;8.912;2024-02-28T06:30:10;29.67;;;15.95;;
32533;SDS011;18973;48.580;8.912;2024-02-28T06:32:37;29.55;;;15.25;;
32533;SDS011;18973;48.580;8.912;2024-02-28T06:35:03;28.90;;;15.68;;
32533;SDS011;18973;48.580;8.912;2024-02-28T06:37:30;29.02;;;16.13;;
32533;SDS011;18973;48.580;8.912;2024-02-28T06:39:55;29.02;;;15.73;;
32533;SDS011;18973;48.580;8.912;2024-02-28T06:42:21;25.60;;;15.00;;
32533;SDS011;18973;48.580;8.912;2024-02-28T06:44:47;31.00;;;14.88;;
32533;SDS011;18973;48.580;8.912;2024-02-28T06:47:13;26.98;;;15.40;;
32533;SDS011;18973;48.580;8.912;2024-02-28T06:49:38;28.00;;;15.55;;
32533;SDS011;18973;48.580;8.912;2024-02-28T06:52:04;28.80;;;16.02;;
32533;SDS011;18973;48.580;8.912;2024-02-28T06:54:30;28.25;;;15.73;;
32533;SDS011;18973;48.580;8.912;2024-02-28T06:56:57;26.83;;;16.35;;
32533;SDS011;18973;48.580;8.912;2024-02-28T06:59:22;30.95;;;14.77;;
32533;SDS011;18973;48.580;8.912;2024-02-28T07:01:48;30.42;;;16.65;;
32533;SDS011;18973;48.580;8.912;2024-02-28T07:04:14;25.95;;;15.95;;
32533;SDS011;18973;48.580;8.912;2024-02-28T07:06:40;27.10;;;15.52;;
32533;SDS011;18973;48.580;8.912;2024-02-28T07:09:08;25.42;;;15.20;;
32533;SDS011;18973;48.580;8.912;2024-02-28T07:11:34;26.60;;;15.15;;
32533;SDS011;18973;48.580;8.912;2024-02-28T07:14:00;29.58;;;15.20;;
32533;SDS011;18973;48.580;8.912;2024-02-28T07:16:29;23.85;;;14.15;;
32533;SDS011;18973;48.580;8.912;2024-02-28T07:18:55;26.20;;;14.57;;
32533;SDS011;18973;48.580;8.912;2024-02-28T07:21:21;27.10;;;14.05;;
32533;SDS011;18973;48.580;8.912;2024-02-28T07:23:46;28.63;;;16.02;;
32533;SDS011;18973;48.580;8.912;2024-02-28T07:26:15;23.50;;;13.60;;
32533;SDS011;18973;48.580;8.912;2024-02-28T07:28:41;26.13;;;13.95;;
32533;SDS011;18973;48.580;8.912;2024-02-28T07:31:14;19.38;;;12.55;;
32533;SDS011;18973;48.580;8.912;2024-02-28T07:33:47;21.88;;;13.02;;
32533;SDS011;18973;48.580;8.912;2024-02-28T07:36:13;23.27;;;13.48;;
32533;SDS011;18973;48.580;8.912;2024-02-28T07:38:41;19.27;;;13.05;;
32533;SDS011;18973;48.580;8.912;2024-02-28T07:41:09;22.13;;;14.02;;
32533;SDS011;18973;48.580;8.912;2024-02-28T07:43:35;24.20;;;13.02;;
32533;SDS011;18973;48.580;8.912;2024-02-28T07:46:07;23.80;;;13.40;;
32533;SDS011;18973;48.580;8.912;2024-02-28T07:48:34;21.98;;;13.40;;
32533;SDS011;18973;48.580;8.912;2024-02-28T07:51:00;23.65;;;14.13;;
32533;SDS011;18973;48.580;8.912;2024-02-28T07:53:26;26.25;;;14.48;;
32533;SDS011;18973;48.580;8.912;2024-02-28T07:55:52;25.85;;;13.55;;
32533;SDS011;18973;48.580;8.912;2024-02-28T07:58:17;22.05;;;13.13;;
32533;SDS011;18973;48.580;8.912;2024-02-28T08:00:43;21.25;;;12.82;;
32533;SDS011;18973;48.580;8.912;2024-02-28T08:03:09;22.70;;;13.35;;
32533;SDS011;18973;48.580;8.912;2024-02-28T08:05:35;20.65;;;12.55;;
32533;SDS011;18973;48.580;8.912;2024-02-28T08:08:06;22.02;;;13.43;;
32533;SDS011;18973;48.580;8.912;2024-02-28T08:10:32;25.25;;;15.38;;
32533;SDS011;18973;48.580;8.912;2024-02-28T08:13:00;31.92;;;16.58;;
32533;SDS011;18973;48.580;8.912;2024-02-28T08:15:26;24.67;;;13.13;;
32533;SDS011;18973;48.580;8.912;2024-02-28T08:17:52;23.50;;;14.00;;
32533;SDS011;18973;48.580;8.912;2024-02-28T08:20:19;22.83;;;13.77;;
32533;SDS011;18973;48.580;8.912;2024-02-28T08:22:44;26.33;;;15.15;;
32533;SDS011;18973;48.580;8.912;2024-02-28T08:25:11;27.35;;;15.98;;
32533;SDS011;18973;48.580;8.912;2024-02-28T08:27:37;21.85;;;14.57;;
32533;SDS011;18973;48.580;8.912;2024-02-28T08:30:03;21.63;;;12.98;;
32533;SDS011;18973;48.580;8.912;2024-02-28T08:32:33;27.88;;;14.98;;
32533;SDS011;18973;48.580;8.912;2024-02-28T08:34:59;23.75;;;14.60;;
32533;SDS011;18973;48.580;8.912;2024-02-28T08:37:25;27.15;;;14.60;;
32533;SDS011;18973;48.580;8.912;2024-02-28T08:39:54;25.13;;;14.43;;
32533;SDS011;18973;48.580;8.912;2024-02-28T08:42:26;27.67;;;15.98;;
32533;SDS011;18973;48.580;8.912;2024-02-28T08:44:54;27.00;;;14.48;;
32533;SDS011;18973;48.580;8.912;2024-02-28T08:47:23;25.65;;;14.65;;
32533;SDS011;18973;48.580;8.912;2024-02-28T08:49:50;24.55;;;13.90;;
32533;SDS011;18973;48.580;8.912;2024-02-28T08:52:16;26.10;;;14.25;;
32533;SDS011;18973;48.580;8.912;2024-02-28T08:54:42;27.67;;;14.93;;
32533;SDS011;18973;48.580;8.912;2024-02-28T08:57:08;26.08;;;14.07;;
32533;SDS011;18973;48.580;8.912;2024-02-28T08:59:33;27.52;;;15.10;;
32533;SDS011;18973;48.580;8.912;2024-02-28T09:01:59;26.35;;;15.73;;
32533;SDS011;18973;48.580;8.912;2024-02-28T09:04:24;26.50;;;14.82;;
32533;SDS011;18973;48.580;8.912;2024-02-28T09:06:50;27.38;;;14.70;;
32533;SDS011;18973;48.580;8.912;2024-02-28T09:09:18;26.58;;;14.48;;
32533;SDS011;18973;48.580;8.912;2024-02-28T09:11:44;28.35;;;15.05;;
32533;SDS011;18973;48.580;8.912;2024-02-28T09:14:09;28.38;;;15.27;;
32533;SDS011;18973;48.580;8.912;2024-02-28T09:16:35;27.23;;;13.52;;
32533;SDS011;18973;48.580;8.912;2024-02-28T09:19:02;23.30;;;13.95;;
32533;SDS011;18973;48.580;8.912;2024-02-28T09:21:28;23.73;;;14.10;;
32533;SDS011;18973;48.580;8.912;2024-02-28T09:23:54;22.33;;;13.38;;
32533;SDS011;18973;48.580;8.912;2024-02-28T09:26:20;20.92;;;12.63;;
32533;SDS011;18973;48.580;8.912;2024-02-28T09:28:46;22.38;;;12.77;;
32533;SDS011;18973;48.580;8.912;2024-02-28T09:31:11;25.17;;;13.00;;
32533;SDS011;18973;48.580;8.912;2024-02-28T09:33:37;22.25;;;13.45;;
32533;SDS011;18973;48.580;8.912;2024-02-28T09:36:03;22.33;;;13.05;;
32533;SDS011;18973;48.580;8.912;2024-02-28T09:38:29;28.05;;;14.35;;
32533;SDS011;18973;48.580;8.912;2024-02-28T09:40:57;27.67;;;13.48;;
32533;SDS011;18973;48.580;8.912;2024-02-28T09:43:34;21.83;;;12.55;;
32533;SDS011;18973;48.580;8.912;2024-02-28T09:46:05;20.88;;;12.70;;
32533;SDS011;18973;48.580;8.912;2024-02-28T09:48:36;21.35;;;13.38;;
32533;SDS011;18973;48.580;8.912;2024-02-28T09:51:05;23.02;;;12.77;;
32533;SDS011;18973;48.580;8.912;2024-02-28T09:53:33;27.38;;;14.07;;
32533;SDS011;18973;48.580;8.912;2024-02-28T09:55:58;21.85;;;12.27;;
32533;SDS011;18973;48.580;8.912;2024-02-28T09:58:24;22.85;;;12.95;;
32533;SDS011;18973;48.580;8.912;2024-02-28T10:00:50;21.70;;;12.77;;
32533;SDS011;18973;48.580;8.912;2024-02-28T10:03:20;24.83;;;13.57;;
32533;SDS011;18973;48.580;8.912;2024-02-28T10:05:51;25.65;;;13.73;;
32533;SDS011;18973;48.580;8.912;2024-02-28T10:08:17;19.25;;;11.35;;
32533;SDS011;18973;48.580;8.912;2024-02-28T10:10:46;23.02;;;12.55;;
32533;SDS011;18973;48.580;8.912;2024-02-28T10:13:12;24.70;;;13.75;;
32533;SDS011;18973;48.580;8.912;2024-02-28T10:15:38;26.10;;;14.30;;
32533;SDS011;18973;48.580;8.912;2024-02-28T10:18:04;26.67;;;12.95;;
32533;SDS011;18973;48.580;8.912;2024-02-28T10:20:30;21.08;;;12.88;;
32533;SDS011;18973;48.580;8.912;2024-02-28T10:22:56;20.85;;;12.55;;
32533;SDS011;18973;48.580;8.912;2024-02-28T10:25:22;21.23;;;12.40;;
32533;SDS011;18973;48.580;8.912;2024-02-28T10:27:48;23.85;;;13.43;;
32533;SDS011;18973;48.580;8.912;2024-02-28T10:30:14;22.23;;;13.57;;
32533;SDS011;18973;48.580;8.912;2024-02-28T10:32:48;25.45;;;13.48;;
32533;SDS011;18973;48.580;8.912;2024-02-28T10:35:16;22.90;;;12.50;;
32533;SDS011;18973;48.580;8.912;2024-02-28T10:37:50;25.30;;;12.60;;
32533;SDS011;18973;48.580;8.912;2024-02-28T10:40:20;19.65;;;12.95;;
32533;SDS011;18973;48.580;8.912;2024-02-28T10:42:46;20.33;;;12.90;;
32533;SDS011;18973;48.580;8.912;2024-02-28T10:45:13;27.27;;;13.35;;
32533;SDS011;18973;48.580;8.912;2024-02-28T10:47:42;24.67;;;13.32;;
32533;SDS011;18973;48.580;8.912;2024-02-28T10:50:08;22.17;;;13.23;;
32533;SDS011;18973;48.580;8.912;2024-02-28T10:52:34;22.80;;;13.45;;
32533;SDS011;18973;48.580;8.912;2024-02-28T10:55:07;23.95;;;13.77;;
32533;SDS011;18973;48.580;8.912;2024-02-28T10:57:34;25.23;;;13.32;;
32533;SDS011;18973;48.580;8.912;2024-02-28T11:00:02;22.10;;;13.60;;
32533;SDS011;18973;48.580;8.912;2024-02-28T11:02:31;22.08;;;12.80;;
32533;SDS011;18973;48.580;8.912;2024-02-28T11:04:57;19.85;;;12.15;;
32533;SDS011;18973;48.580;8.912;2024-02-28T11:07:26;19.13;;;11.63;;
32533;SDS011;18973;48.580;8.912;2024-02-28T11:09:54;19.08;;;11.82;;
32533;SDS011;18973;48.580;8.912;2024-02-28T11:12:24;17.50;;;10.93;;
32533;SDS011;18973;48.580;8.912;2024-02-28T11:14:57;19.38;;;11.35;;
32533;SDS011;18973;48.580;8.912;2024-02-28T11:17:27;20.70;;;11.68;;
32533;SDS011;18973;48.580;8.912;2024-02-28T11:19:54;22.17;;;11.65;;
32533;SDS011;18973;48.580;8.912;2024-02-28T11:22:19;18.85;;;11.18;;
32533;SDS011;18973;48.580;8.912;2024-02-28T11:24:49;17.27;;;10.98;;
32533;SDS011;18973;48.580;8.912;2024-02-28T11:27:18;20.30;;;12.32;;
32533;SDS011;18973;48.580;8.912;2024-02-28T11:29:44;18.48;;;10.55;;
32533;SDS011;18973;48.580;8.912;2024-02-28T11:32:12;19.05;;;11.25;;
32533;SDS011;18973;48.580;8.912;2024-02-28T11:34:39;19.77;;;12.13;;
32533;SDS011;18973;48.580;8.912;2024-02-28T11:37:05;20.17;;;11.15;;
32533;SDS011;18973;48.580;8.912;2024-02-28T11:39:33;22.38;;;12.75;;
32533;SDS011;18973;48.580;8.912;2024-02-28T11:42:09;18.90;;;11.27;;
32533;SDS011;18973;48.580;8.912;2024-02-28T11:44:39;17.88;;;10.90;;
32533;SDS011;18973;48.580;8.912;2024-02-28T11:47:05;19.77;;;12.13;;
32533;SDS011;18973;48.580;8.912;2024-02-28T11:49:35;18.27;;;10.73;;
32533;SDS011;18973;48.580;8.912;2024-02-28T11:52:01;21.48;;;12.25;;
32533;SDS011;18973;48.580;8.912;2024-02-28T11:54:27;20.17;;;12.27;;
32533;SDS011;18973;48.580;8.912;2024-02-28T11:56:53;21.05;;;12.63;;
32533;SDS011;18973;48.580;8.912;2024-02-28T11:59:19;20.35;;;13.70;;
32533;SDS011;18973;48.580;8.912;2024-02-28T12:01:45;20.02;;;11.50;;
32533;SDS011;18973;48.580;8.912;2024-02-28T12:04:11;19.08;;;10.60;;
32533;SDS011;18973;48.580;8.912;2024-02-28T12:06:38;19.70;;;11.50;;
32533;SDS011;18973;48.580;8.912;2024-02-28T12:09:05;20.45;;;12.00;;
32533;SDS011;18973;48.580;8.912;2024-02-28T12:11:36;20.70;;;10.80;;
32533;SDS011;18973;48.580;8.912;2024-02-28T12:14:12;19.67;;;11.32;;
32533;SDS011;18973;48.580;8.912;2024-02-28T12:16:41;23.38;;;11.85;;
32533;SDS011;18973;48.580;8.912;2024-02-28T12:19:09;19.58;;;11.13;;
32533;SDS011;18973;48.580;8.912;2024-02-28T12:21:39;17.08;;;11.70;;
32533;SDS011;18973;48.580;8.912;2024-02-28T12:24:08;23.52;;;11.02;;
32533;SDS011;18973;48.580;8.912;2024-02-28T12:26:35;17.00;;;10.38;;
32533;SDS011;18973;48.580;8.912;2024-02-28T12:29:01;21.13;;;11.90;;
32533;SDS011;18973;48.580;8.912;2024-02-28T12:31:27;21.63;;;11.75;;
32533;SDS011;18973;48.580;8.912;2024-02-28T12:33:53;18.05;;;12.27;;
32533;SDS011;18973;48.580;8.912;2024-02-28T12:36:19;22.02;;;12.35;;
32533;SDS011;18973;48.580;8.912;2024-02-28T12:38:45;18.55;;;11.55;;
32533;SDS011;18973;48.580;8.912;2024-02-28T12:41:11;19.98;;;11.45;;
32533;SDS011;18973;48.580;8.912;2024-02-28T12:43:37;18.48;;;11.30;;
32533;SDS011;18973;48.580;8.912;2024-02-28T12:46:04;23.08;;;12.45;;
32533;SDS011;18973;48.580;8.912;2024-02-28T12:48:31;22.33;;;12.48;;
32533;SDS011;18973;48.580;8.912;2024-02-28T12:51:02;20.23;;;13.00;;
32533;SDS011;18973;48.580;8.912;2024-02-28T12:53:27;22.02;;;13.10;;
32533;SDS011;18973;48.580;8.912;2024-02-28T12:55:53;23.13;;;12.05;;
32533;SDS011;18973;48.580;8.912;2024-02-28T12:58:19;20.52;;;12.23;;
32533;SDS011;18973;48.580;8.912;2024-02-28T13:00:44;17.30;;;10.68;;
32533;SDS011;18973;48.580;8.912;2024-02-28T13:03:10;17.20;;;11.00;;
32533;SDS011;18973;48.580;8.912;2024-02-28T13:05:36;19.38;;;11.73;;
32533;SDS011;18973;48.580;8.912;2024-02-28T13:08:02;21.00;;;11.57;;
32533;SDS011;18973;48.580;8.912;2024-02-28T13:10:28;21.30;;;12.55;;
32533;SDS011;18973;48.580;8.912;2024-02-28T13:12:55;23.13;;;12.52;;
32533;SDS011;18973;48.580;8.912;2024-02-28T13:15:21;20.27;;;12.27;;
32533;SDS011;18973;48.580;8.912;2024-02-28T13:17:46;24.88;;;12.40;;
32533;SDS011;18973;48.580;8.912;2024-02-28T13:20:14;19.88;;;11.75;;
32533;SDS011;18973;48.580;8.912;2024-02-28T13:22:40;19.23;;;11.85;;
32533;SDS011;18973;48.580;8.912;2024-02-28T13:25:06;17.83;;;11.00;;
32533;SDS011;18973;48.580;8.912;2024-02-28T13:27:33;24.52;;;12.25;;
32533;SDS011;18973;48.580;8.912;2024-02-28T13:29:59;22.27;;;11.85;;
32533;SDS011;18973;48.580;8.912;2024-02-28T13:32:25;22.80;;;13.75;;
32533;SDS011;18973;48.580;8.912;2024-02-28T13:34:50;23.23;;;12.93;;
32533;SDS011;18973;48.580;8.912;2024-02-28T13:37:16;23.02;;;13.35;;
32533;SDS011;18973;48.580;8.912;2024-02-28T13:39:42;25.13;;;13.52;;
32533;SDS011;18973;48.580;8.912;2024-02-28T13:42:07;20.77;;;12.27;;
32533;SDS011;18973;48.580;8.912;2024-02-28T13:44:34;20.42;;;11.82;;
32533;SDS011;18973;48.580;8.912;2024-02-28T13:47:01;18.75;;;11.48;;
32533;SDS011;18973;48.580;8.912;2024-02-28T13:49:28;22.30;;;12.38;;
32533;SDS011;18973;48.580;8.912;2024-02-28T13:51:54;20.88;;;12.15;;
32533;SDS011;18973;48.580;8.912;2024-02-28T13:54:19;20.23;;;12.02;;
32533;SDS011;18973;48.580;8.912;2024-02-28T13:56:45;23.23;;;11.63;;
32533;SDS011;18973;48.580;8.912;2024-02-28T13:59:11;20.40;;;11.27;;
32533;SDS011;18973;48.580;8.912;2024-02-28T14:01:37;22.73;;;13.55;;
32533;SDS011;18973;48.580;8.912;2024-02-28T14:04:03;21.88;;;13.05;;
32533;SDS011;18973;48.580;8.912;2024-02-28T14:06:29;26.08;;;13.32;;
32533;SDS011;18973;48.580;8.912;2024-02-28T14:08:55;19.67;;;11.55;;
32533;SDS011;18973;48.580;8.912;2024-02-28T14:11:21;24.85;;;13.15;;
32533;SDS011;18973;48.580;8.912;2024-02-28T14:13:47;20.73;;;12.65;;
32533;SDS011;18973;48.580;8.912;2024-02-28T14:16:13;26.90;;;12.75;;
32533;SDS011;18973;48.580;8.912;2024-02-28T14:18:40;20.65;;;13.35;;